Here is the Quick Look data you requested

The Data originates at the National Weather Service, and is made available here by the UAlbany Department of Atmospheric and Environmental Sciences

Surface Observations

KOQU 231850Z 11008KT 15SM OVC200 21/07 A2985=